Time;durP1;ratioP1;P1;durP2;ratioP2;P2;SDS_P1;SDS_P2;PMS_P1;PMS_P2;Temp;Humidity;BMP_temperature;BMP_pressure;BME280_temperature;BME280_humidity;BME280_pressure;Samples;Min_cycle;Max_cycle;Signal;HPM_P1;HPM_P2
2022/03/14 00:01:39;;;;;;;;;;;;;;;;;;4996730;28;19978;-69
2022/03/14 00:04:05;;;;;;;;;;;;;;;;;;5003836;28;19921;-68
2022/03/14 00:06:32;;;;;;;;;;;;;;;;;;5016522;28;20496;-68
2022/03/14 00:09:06;;;;;;;;;;;;;;;;;;5005191;28;19951;-68
2022/03/14 00:11:35;;;;;;;;;;;;;;;;;;5018803;28;19916;-68
2022/03/14 00:14:06;;;;;;;;;;;;;;;;;;5023625;28;20074;-68
2022/03/14 00:16:39;;;;;;;;;;;;;;;;;;5019067;28;19917;-68
2022/03/14 00:19:07;;;;;;;;;;;;;;;;;;5023343;28;20359;-68
2022/03/14 00:21:38;;;;;;;;;;;;;;;;;;5027309;28;19960;-68
2022/03/14 00:24:06;;;;;;;;;;;;;;;;;;5024154;28;19997;-69
2022/03/14 00:26:34;;;;;;;;;;;;;;;;;;5019600;28;20325;-68
2022/03/14 00:29:20;;;;;;;;;;;;;;;;;;5018601;28;19925;-68
2022/03/14 00:31:47;;;;;;;;;;;;;;;;;;5022931;28;19971;-68
2022/03/14 00:34:34;;;;;;;;;;;;;;;;;;5020496;28;19921;-69
2022/03/14 00:37:01;;;;;;;;;;;;;;;;;;5026591;28;19913;-69
2022/03/14 00:39:28;;;;;;;;;;;;;;;;;;5019898;28;20382;-68
2022/03/14 00:41:55;;;;;;;;;;;;;;;;;;5005602;28;19912;-69
2022/03/14 00:44:21;;;;;;;;;;;;;;;;;;5018957;28;19980;-69
2022/03/14 00:46:50;;;;;;;;;;;;;;;;;;5025519;28;20016;-68
2022/03/14 00:49:16;;;;;;;;;;;;;;;;;;5006678;28;19995;-68
2022/03/14 00:51:43;;;;;;;;;;;;;;;;;;5000528;28;20402;-69
2022/03/14 00:54:09;;;;;;;;;;;;;;;;;;4965795;28;20409;-69
2022/03/14 00:56:37;;;;;;;;;;;;;;;;;;4984317;28;21757;-68
2022/03/14 00:59:03;;;;;;;;;;;;;;;;;;5000244;28;19917;-68
2022/03/14 01:01:30;;;;;;;;;;;;;;;;;;5003105;28;19922;-69
2022/03/14 01:03:56;;;;;;;;;;;;;;;;;;4992962;28;19929;-69
2022/03/14 01:06:22;;;;;;;;;;;;;;;;;;5001439;28;20026;-67
2022/03/14 01:08:50;;;;;;;;;;;;;;;;;;5004725;28;19991;-69
2022/03/14 01:11:16;;;;;;;;;;;;;;;;;;5001252;28;19917;-68
2022/03/14 01:13:44;;;;;;;;;;;;;;;;;;4999014;28;19924;-68
2022/03/14 01:16:12;;;;;;;;;;;;;;;;;;5000556;28;19913;-68
2022/03/14 01:18:38;;;;;;;;;;;;;;;;;;5000497;28;19916;-68
2022/03/14 01:21:04;;;;;;;;;;;;;;;;;;5001534;28;19995;-70
2022/03/14 01:23:31;;;;;;;;;;;;;;;;;;4998377;28;19924;-69
2022/03/14 01:25:57;;;;;;;;;;;;;;;;;;4987339;28;20318;-68
2022/03/14 01:28:23;;;;;;;;;;;;;;;;;;5004567;28;19922;-69
2022/03/14 01:30:50;;;;;;;;;;;;;;;;;;4983223;28;19924;-68
2022/03/14 01:33:16;;;;;;;;;;;;;;;;;;4969593;28;20283;-68
2022/03/14 01:35:44;;;;;;;;;;;;;;;;;;5001410;28;19921;-70
2022/03/14 01:38:10;;;;;;;;;;;;;;;;;;5000912;28;19917;-68
2022/03/14 01:40:36;;;;;;;;;;;;;;;;;;5018521;28;19999;-68
2022/03/14 01:43:02;;;;;;;;;;;;;;;;;;5021956;28;19921;-68
2022/03/14 01:45:30;;;;;;;;;;;;;;;;;;5017407;28;20376;-68
2022/03/14 01:48:16;;;;;;;;;;;;;;;;;;5018484;28;19920;-68
2022/03/14 01:50:44;;;;;;;;;;;;;;;;;;5019907;28;20294;-69
2022/03/14 01:53:11;;;;;;;;;;;;;;;;;;5020674;28;20335;-68
2022/03/14 01:55:38;;;;;;;;;;;;;;;;;;5017782;28;20963;-68
2022/03/14 01:58:05;;;;;;;;;;;;;;;;;;5004552;28;19917;-69
2022/03/14 02:00:32;;;;;;;;;;;;;;;;;;5016459;28;20291;-68
2022/03/14 02:02:59;;;;;;;;;;;;;;;;;;5000231;28;19960;-67
2022/03/14 02:05:28;;;;;;;;;;;;;;;;;;5018380;28;20264;-68
2022/03/14 02:07:54;;;;;;;;;;;;;;;;;;4999053;28;20362;-68
2022/03/14 02:10:20;;;;;;;;;;;;;;;;;;4997069;28;19917;-67
2022/03/14 02:12:47;;;;;;;;;;;;;;;;;;4984042;28;19917;-69
2022/03/14 02:15:13;;;;;;;;;;;;;;;;;;4996772;28;19924;-68
2022/03/14 02:17:40;;;;;;;;;;;;;;;;;;4995563;28;19917;-68
2022/03/14 02:20:07;;;;;;;;;;;;;;;;;;4999845;28;19925;-68
2022/03/14 02:22:34;;;;;;;;;;;;;;;;;;4995820;28;20035;-68
2022/03/14 02:25:01;;;;;;;;;;;;;;;;;;4998502;28;19925;-67
2022/03/14 02:27:27;;;;;;;;;;;;;;;;;;4995296;28;20501;-68
2022/03/14 02:29:54;;;;;;;;;;;;;;;;;;4999208;28;19933;-68
2022/03/14 02:32:20;;;;;;;;;;;;;;;;;;4993986;28;19917;-69
2022/03/14 02:34:46;;;;;;;;;;;;;;;;;;4999829;28;19995;-68
2022/03/14 02:37:12;;;;;;;;;;;;;;;;;;4997842;28;19920;-68
2022/03/14 02:39:41;;;;;;;;;;;;;;;;;;4971543;28;20088;-68
2022/03/14 02:42:08;;;;;;;;;;;;;;;;;;4985977;28;19959;-68
2022/03/14 02:44:42;;;;;;;;;;;;;;;;;;5001694;28;19959;-68
2022/03/14 02:47:08;;;;;;;;;;;;;;;;;;4988582;28;19948;-68
2022/03/14 02:49:34;;;;;;;;;;;;;;;;;;5002394;28;19920;-68
2022/03/14 02:52:02;;;;;;;;;;;;;;;;;;5006445;28;20020;-69
2022/03/14 02:54:29;;;;;;;;;;;;;;;;;;4997990;28;20355;-67
2022/03/14 02:56:57;;;;;;;;;;;;;;;;;;5005983;28;20398;-69
2022/03/14 02:59:23;;;;;;;;;;;;;;;;;;5001548;28;20695;-68
2022/03/14 03:01:49;;;;;;;;;;;;;;;;;;5005916;28;19952;-68
2022/03/14 03:04:15;;;;;;;;;;;;;;;;;;5004299;28;19921;-69
2022/03/14 03:06:42;;;;;;;;;;;;;;;;;;5003693;28;19921;-68
2022/03/14 03:09:10;;;;;;;;;;;;;;;;;;5003695;28;19925;-68
2022/03/14 03:11:36;;;;;;;;;;;;;;;;;;4997255;28;20367;-68
2022/03/14 03:14:04;;;;;;;;;;;;;;;;;;5004835;28;19928;-67
2022/03/14 03:16:34;;;;;;;;;;;;;;;;;;5001979;28;19921;-69
2022/03/14 03:19:03;;;;;;;;;;;;;;;;;;5004769;28;20439;-69
2022/03/14 03:21:34;;;;;;;;;;;;;;;;;;4998969;28;20359;-68
2022/03/14 03:24:00;;;;;;;;;;;;;;;;;;5006406;28;20359;-69
2022/03/14 03:26:28;;;;;;;;;;;;;;;;;;5002100;28;20445;-68
2022/03/14 03:28:54;;;;;;;;;;;;;;;;;;5007444;28;19943;-68
2022/03/14 03:31:22;;;;;;;;;;;;;;;;;;5003845;28;19988;-70
2022/03/14 03:33:50;;;;;;;;;;;;;;;;;;5005335;28;20406;-69
2022/03/14 03:36:16;;;;;;;;;;;;;;;;;;4983998;28;19956;-68
2022/03/14 03:38:42;;;;;;;;;;;;;;;;;;5005521;28;19992;-67
2022/03/14 03:41:10;;;;;;;;;;;;;;;;;;5005474;28;19947;-68
2022/03/14 03:43:37;;;;;;;;;;;;;;;;;;5001282;28;20477;-69
2022/03/14 03:46:08;;;;;;;;;;;;;;;;;;5004784;28;19917;-68
2022/03/14 03:48:35;;;;;;;;;;;;;;;;;;4998835;28;20043;-69
2022/03/14 03:51:01;;;;;;;;;;;;;;;;;;5007818;28;20429;-69
2022/03/14 03:53:27;;;;;;;;;;;;;;;;;;5005109;28;20121;-69
2022/03/14 03:55:53;;;;;;;;;;;;;;;;;;5008298;28;19921;-69
2022/03/14 03:58:19;;;;;;;;;;;;;;;;;;5004753;28;21557;-69
2022/03/14 04:00:45;;;;;;;;;;;;;;;;;;5007653;28;20366;-69
2022/03/14 04:03:11;;;;;;;;;;;;;;;;;;4992187;28;20300;-69
2022/03/14 04:05:40;;;;;;;;;;;;;;;;;;5010142;28;20063;-69
2022/03/14 04:08:10;;;;;;;;;;;;;;;;;;5009551;28;19921;-69
2022/03/14 04:10:36;;;;;;;;;;;;;;;;;;4969538;28;22348;-68
2022/03/14 04:13:06;;;;;;;;;;;;;;;;;;5009252;28;19917;-69
2022/03/14 04:15:42;;;;;;;;;;;;;;;;;;5004913;28;19960;-69
2022/03/14 04:18:11;;;;;;;;;;;;;;;;;;5006372;28;19949;-68
2022/03/14 04:20:37;;;;;;;;;;;;;;;;;;5005101;28;19917;-68
2022/03/14 04:23:05;;;;;;;;;;;;;;;;;;5008237;28;19917;-69
2022/03/14 04:25:31;;;;;;;;;;;;;;;;;;5004206;28;19924;-69
2022/03/14 04:27:57;;;;;;;;;;;;;;;;;;4992940;28;20352;-68
2022/03/14 04:30:24;;;;;;;;;;;;;;;;;;5004793;28;19921;-68
2022/03/14 04:32:52;;;;;;;;;;;;;;;;;;5010345;28;19917;-69
2022/03/14 04:35:19;;;;;;;;;;;;;;;;;;5004015;28;19924;-68
2022/03/14 04:37:46;;;;;;;;;;;;;;;;;;5013909;28;19925;-69
2022/03/14 04:40:14;;;;;;;;;;;;;;;;;;5008512;28;19917;-69
2022/03/14 04:42:40;;;;;;;;;;;;;;;;;;4971097;28;20020;-69
2022/03/14 04:45:06;;;;;;;;;;;;;;;;;;5008806;28;20382;-68
2022/03/14 04:47:32;;;;;;;;;;;;;;;;;;5001269;28;20231;-69
2022/03/14 04:49:59;;;;;;;;;;;;;;;;;;5000319;28;19964;-69
2022/03/14 04:52:25;;;;;;;;;;;;;;;;;;5003466;28;20290;-69
2022/03/14 04:54:52;;;;;;;;;;;;;;;;;;5009278;28;19913;-68
2022/03/14 04:57:19;;;;;;;;;;;;;;;;;;5003326;28;19932;-69
2022/03/14 04:59:44;;;;;;;;;;;;;;;;;;5008188;28;20323;-68
2022/03/14 05:02:10;;;;;;;;;;;;;;;;;;5009225;28;19963;-69
2022/03/14 05:04:38;;;;;;;;;;;;;;;;;;5004500;28;19918;-69
2022/03/14 05:07:06;;;;;;;;;;;;;;;;;;5001128;28;19921;-69
2022/03/14 05:09:32;;;;;;;;;;;;;;;;;;5008376;28;19924;-68
2022/03/14 05:11:58;;;;;;;;;;;;;;;;;;5009031;28;19972;-69
2022/03/14 05:14:27;;;;;;;;;;;;;;;;;;4990938;28;19943;-69
2022/03/14 05:16:54;;;;;;;;;;;;;;;;;;5005645;28;20497;-69
2022/03/14 05:19:20;;;;;;;;;;;;;;;;;;5023654;28;19916;-68
2022/03/14 05:21:47;;;;;;;;;;;;;;;;;;5030892;28;20318;-70
2022/03/14 05:24:13;;;;;;;;;;;;;;;;;;5030285;28;20002;-69
2022/03/14 05:26:40;;;;;;;;;;;;;;;;;;5026706;28;20019;-69
2022/03/14 05:29:08;;;;;;;;;;;;;;;;;;5029658;28;19933;-69
2022/03/14 05:31:34;;;;;;;;;;;;;;;;;;5027063;28;19917;-69
2022/03/14 05:34:00;;;;;;;;;;;;;;;;;;5030260;28;20292;-69
2022/03/14 05:36:26;;;;;;;;;;;;;;;;;;5027184;28;19917;-68
2022/03/14 05:38:54;;;;;;;;;;;;;;;;;;5028952;28;20028;-68
2022/03/14 05:41:20;;;;;;;;;;;;;;;;;;5024987;28;19916;-68
2022/03/14 05:43:47;;;;;;;;;;;;;;;;;;5027595;28;19939;-68
2022/03/14 05:46:17;;;;;;;;;;;;;;;;;;5024793;28;19917;-68
2022/03/14 05:48:44;;;;;;;;;;;;;;;;;;5027005;28;19928;-68
2022/03/14 05:51:11;;;;;;;;;;;;;;;;;;5011861;28;19924;-69
2022/03/14 05:53:39;;;;;;;;;;;;;;;;;;5023065;28;19959;-69
2022/03/14 05:56:06;;;;;;;;;;;;;;;;;;5026010;28;19917;-69
2022/03/14 05:58:34;;;;;;;;;;;;;;;;;;5022541;28;20013;-69
2022/03/14 06:01:01;;;;;;;;;;;;;;;;;;5008742;28;20376;-68
2022/03/14 06:03:27;;;;;;;;;;;;;;;;;;5025795;28;19924;-68
2022/03/14 06:05:53;;;;;;;;;;;;;;;;;;5026931;28;19917;-68
2022/03/14 06:08:19;;;;;;;;;;;;;;;;;;5015733;28;19921;-68
2022/03/14 06:10:46;;;;;;;;;;;;;;;;;;5025417;28;19917;-68
2022/03/14 06:13:13;;;;;;;;;;;;;;;;;;5026116;28;20015;-68
2022/03/14 06:15:41;;;;;;;;;;;;;;;;;;5023628;28;19924;-68
2022/03/14 06:18:08;;;;;;;;;;;;;;;;;;5029559;28;20627;-68
2022/03/14 06:20:34;;;;;;;;;;;;;;;;;;5025043;28;20026;-70
2022/03/14 06:23:00;;;;;;;;;;;;;;;;;;5025831;28;19924;-69
2022/03/14 06:25:28;;;;;;;;;;;;;;;;;;5021054;28;19917;-69
2022/03/14 06:27:55;;;;;;;;;;;;;;;;;;5026072;28;19921;-69
2022/03/14 06:30:22;;;;;;;;;;;;;;;;;;5022389;28;20507;-69
2022/03/14 06:32:49;;;;;;;;;;;;;;;;;;5025347;28;19923;-69
2022/03/14 06:35:17;;;;;;;;;;;;;;;;;;5025353;28;20155;-69
2022/03/14 06:37:43;;;;;;;;;;;;;;;;;;5024222;28;19936;-69
2022/03/14 06:40:11;;;;;;;;;;;;;;;;;;5025681;28;20055;-69
2022/03/14 06:42:38;;;;;;;;;;;;;;;;;;5006806;28;19920;-69
2022/03/14 06:45:04;;;;;;;;;;;;;;;;;;5028430;28;19921;-69
2022/03/14 06:47:32;;;;;;;;;;;;;;;;;;5024968;28;19920;-69
2022/03/14 06:49:59;;;;;;;;;;;;;;;;;;5027980;28;20422;-69
2022/03/14 06:52:25;;;;;;;;;;;;;;;;;;5023538;28;20099;-69
2022/03/14 06:54:51;;;;;;;;;;;;;;;;;;5029790;28;19970;-71
2022/03/14 06:57:17;;;;;;;;;;;;;;;;;;5022943;28;19917;-69
2022/03/14 06:59:43;;;;;;;;;;;;;;;;;;5027203;28;19920;-69
2022/03/14 07:02:10;;;;;;;;;;;;;;;;;;5025643;28;20306;-69
2022/03/14 07:04:36;;;;;;;;;;;;;;;;;;5024067;28;19921;-69
2022/03/14 07:07:05;;;;;;;;;;;;;;;;;;5023082;28;20439;-69
2022/03/14 07:09:31;;;;;;;;;;;;;;;;;;5003674;28;20853;-69
2022/03/14 07:11:59;;;;;;;;;;;;;;;;;;5026438;28;19974;-69
2022/03/14 07:14:26;;;;;;;;;;;;;;;;;;5017979;28;19952;-69
2022/03/14 07:16:52;;;;;;;;;;;;;;;;;;5026878;28;19928;-69
2022/03/14 07:19:20;;;;;;;;;;;;;;;;;;5021542;28;20002;-69
2022/03/14 07:21:47;;;;;;;;;;;;;;;;;;5025383;28;19946;-69
2022/03/14 07:24:13;;;;;;;;;;;;;;;;;;5008461;28;19979;-69
2022/03/14 07:26:40;;;;;;;;;;;;;;;;;;5022691;28;19979;-69
2022/03/14 07:29:08;;;;;;;;;;;;;;;;;;5025551;28;19925;-69
2022/03/14 07:31:37;;;;;;;;;;;;;;;;;;5024221;28;19917;-68
2022/03/14 07:34:03;;;;;;;;;;;;;;;;;;5024267;28;19998;-69
2022/03/14 07:36:30;;;;;;;;;;;;;;;;;;5021742;28;20337;-70
2022/03/14 07:38:56;;;;;;;;;;;;;;;;;;5020317;28;19999;-69
2022/03/14 07:41:23;;;;;;;;;;;;;;;;;;5020176;28;19921;-69
2022/03/14 07:43:49;;;;;;;;;;;;;;;;;;5024918;28;19922;-70
2022/03/14 07:46:18;;;;;;;;;;;;;;;;;;5032354;28;19921;-69
2022/03/14 07:48:45;;;;;;;;;;;;;;;;;;5027366;28;19921;-68
2022/03/14 07:51:11;;;;;;;;;;;;;;;;;;5009710;28;19929;-69
2022/03/14 07:53:39;;;;;;;;;;;;;;;;;;5027181;28;19913;-69
2022/03/14 07:56:06;;;;;;;;;;;;;;;;;;5028349;28;20003;-68
2022/03/14 07:58:33;;;;;;;;;;;;;;;;;;5027401;28;20355;-69
2022/03/14 08:01:00;;;;;;;;;;;;;;;;;;5028747;28;19925;-69
2022/03/14 08:03:46;;;;;;;;;;;;;;;;;;5033982;28;19952;-69
2022/03/14 08:06:19;;;;;;;;;;;;;;;;;;5032980;28;19921;-69
2022/03/14 08:08:48;;;;;;;;;;;;;;;;;;5028222;28;20049;-68
2022/03/14 08:11:16;;;;;;;;;;;;;;;;;;5024759;28;20313;-69
2022/03/14 08:13:42;;;;;;;;;;;;;;;;;;5034182;28;20383;-69
2022/03/14 08:16:09;;;;;;;;;;;;;;;;;;5030457;28;19924;-69
2022/03/14 08:18:38;;;;;;;;;;;;;;;;;;5026304;28;19927;-69
2022/03/14 08:21:04;;;;;;;;;;;;;;;;;;5027740;28;20259;-69
2022/03/14 08:23:31;;;;;;;;;;;;;;;;;;5024779;28;19998;-69
2022/03/14 08:26:00;;;;;;;;;;;;;;;;;;5029994;28;20879;-69
2022/03/14 08:28:37;;;;;;;;;;;;;;;;;;5025027;28;19963;-69
2022/03/14 08:31:08;;;;;;;;;;;;;;;;;;5028586;28;19947;-69
2022/03/14 08:33:40;;;;;;;;;;;;;;;;;;5009529;28;19928;-69
2022/03/14 08:36:07;;;;;;;;;;;;;;;;;;5009541;28;19964;-68
2022/03/14 08:38:34;;;;;;;;;;;;;;;;;;4991002;28;19924;-68
2022/03/14 08:41:03;;;;;;;;;;;;;;;;;;5031039;28;19947;-68
2022/03/14 08:43:30;;;;;;;;;;;;;;;;;;5029395;28;20454;-68
2022/03/14 08:45:57;;;;;;;;;;;;;;;;;;5010976;28;20027;-68
2022/03/14 08:48:25;;;;;;;;;;;;;;;;;;5022536;28;19924;-68
2022/03/14 08:50:51;;;;;;;;;;;;;;;;;;5030311;28;20544;-68
2022/03/14 08:53:19;;;;;;;;;;;;;;;;;;5025375;28;20363;-68
2022/03/14 08:55:46;;;;;;;;;;;;;;;;;;5029612;28;19924;-67
2022/03/14 08:58:15;;;;;;;;;;;;;;;;;;5030321;28;20069;-68
2022/03/14 09:00:41;;;;;;;;;;;;;;;;;;5026452;28;19924;-68
2022/03/14 09:03:07;;;;;;;;;;;;;;;;;;5027430;28;20533;-68
2022/03/14 09:05:35;;;;;;;;;;;;;;;;;;5026120;28;19917;-68
2022/03/14 09:08:03;;;;;;;;;;;;;;;;;;5012334;28;19928;-68
2022/03/14 09:10:36;;;;;;;;;;;;;;;;;;5023230;28;19935;-68
2022/03/14 09:13:03;;;;;;;;;;;;;;;;;;5010783;28;19917;-68
2022/03/14 09:15:30;;;;;;;;;;;;;;;;;;5025072;28;19924;-68
2022/03/14 09:18:03;;;;;;;;;;;;;;;;;;5028029;28;20185;-68
2022/03/14 09:20:29;;;;;;;;;;;;;;;;;;5025167;28;19932;-68
2022/03/14 09:22:55;;;;;;;;;;;;;;;;;;5028412;28;19939;-68
2022/03/14 09:25:22;;;;;;;;;;;;;;;;;;5025553;28;19924;-68
2022/03/14 09:27:49;;;;;;;;;;;;;;;;;;5007554;28;19917;-68
2022/03/14 09:30:15;;;;;;;;;;;;;;;;;;5010569;28;20605;-68
2022/03/14 09:32:41;;;;;;;;;;;;;;;;;;5009883;28;19978;-68
2022/03/14 09:35:08;;;;;;;;;;;;;;;;;;5029896;28;20399;-68
2022/03/14 09:37:35;;;;;;;;;;;;;;;;;;5024221;28;19920;-68
2022/03/14 09:40:03;;;;;;;;;;;;;;;;;;5027759;28;19932;-69
2022/03/14 09:42:29;;;;;;;;;;;;;;;;;;5020979;28;20031;-68
2022/03/14 09:44:57;;;;;;;;;;;;;;;;;;5026577;28;20367;-68
2022/03/14 09:47:24;;;;;;;;;;;;;;;;;;5023463;28;20027;-68
2022/03/14 09:49:50;;;;;;;;;;;;;;;;;;5023119;28;19921;-68
2022/03/14 09:52:17;;;;;;;;;;;;;;;;;;5027942;28;19920;-68
2022/03/14 09:54:44;;;;;;;;;;;;;;;;;;5026983;28;19950;-69
2022/03/14 09:57:10;;;;;;;;;;;;;;;;;;5008039;28;19916;-69
2022/03/14 09:59:36;;;;;;;;;;;;;;;;;;5020719;28;21676;-69
2022/03/14 10:02:02;;;;;;;;;;;;;;;;;;5027373;28;19939;-68
2022/03/14 10:04:29;;;;;;;;;;;;;;;;;;5019427;28;20434;-69
2022/03/14 10:06:55;;;;;;;;;;;;;;;;;;5026210;28;20041;-68
2022/03/14 10:09:22;;;;;;;;;;;;;;;;;;5024912;28;20003;-67
2022/03/14 10:11:50;;;;;;;;;;;;;;;;;;5027556;28;19959;-67
2022/03/14 10:14:19;;;;;;;;;;;;;;;;;;5024739;28;19992;-67
2022/03/14 10:16:47;;;;;;;;;;;;;;;;;;5027282;28;19960;-67
2022/03/14 10:19:22;;;;;;;;;;;;;;;;;;5024370;28;20019;-67
2022/03/14 10:21:52;;;;;;;;;;;;;;;;;;5029359;28;20352;-67
2022/03/14 10:24:20;;;;;;;;;;;;;;;;;;5022400;28;20015;-66
2022/03/14 10:26:47;;;;;;;;;;;;;;;;;;5028757;28;20010;-67
2022/03/14 10:29:15;;;;;;;;;;;;;;;;;;5025494;28;20004;-68
2022/03/14 10:31:49;;;;;;;;;;;;;;;;;;5027881;28;19923;-67
2022/03/14 10:34:20;;;;;;;;;;;;;;;;;;5024407;28;20284;-68
2022/03/14 10:36:51;;;;;;;;;;;;;;;;;;4991968;28;19917;-68
2022/03/14 10:39:30;;;;;;;;;;;;;;;;;;5021862;28;20131;-68
2022/03/14 10:41:59;;;;;;;;;;;;;;;;;;4987891;28;20018;-68
2022/03/14 10:44:25;;;;;;;;;;;;;;;;;;5017338;28;19917;-68
2022/03/14 10:46:51;;;;;;;;;;;;;;;;;;5024444;28;19917;-68
2022/03/14 10:49:18;;;;;;;;;;;;;;;;;;5020806;28;20248;-69
2022/03/14 10:51:46;;;;;;;;;;;;;;;;;;5025175;28;20027;-68
2022/03/14 10:54:14;;;;;;;;;;;;;;;;;;5006870;28;20385;-69
2022/03/14 10:56:41;;;;;;;;;;;;;;;;;;5021925;28;19913;-69
2022/03/14 10:59:12;;;;;;;;;;;;;;;;;;5024221;28;19946;-68
2022/03/14 11:01:37;;;;;;;;;;;;;;;;;;5004296;28;20424;-68
2022/03/14 11:04:03;;;;;;;;;;;;;;;;;;5024897;28;19912;-69
2022/03/14 11:06:33;;;;;;;;;;;;;;;;;;5021853;28;19921;-69
2022/03/14 11:09:00;;;;;;;;;;;;;;;;;;5024626;28;19928;-69
2022/03/14 11:11:26;;;;;;;;;;;;;;;;;;5001491;28;19917;-69
2022/03/14 11:13:55;;;;;;;;;;;;;;;;;;5025537;28;19920;-69
2022/03/14 11:16:33;;;;;;;;;;;;;;;;;;5027126;28;19996;-69
2022/03/14 11:18:59;;;;;;;;;;;;;;;;;;5030039;28;19950;-69
2022/03/14 11:21:26;;;;;;;;;;;;;;;;;;5026091;28;19921;-69
2022/03/14 11:23:54;;;;;;;;;;;;;;;;;;5029943;28;19995;-73
2022/03/14 11:26:20;;;;;;;;;;;;;;;;;;5028685;28;19916;-74
2022/03/14 11:28:47;;;;;;;;;;;;;;;;;;5029834;28;19921;-71
2022/03/14 11:31:13;;;;;;;;;;;;;;;;;;5031257;28;19924;-74
2022/03/14 11:33:41;;;;;;;;;;;;;;;;;;5026003;28;19917;-75
2022/03/14 11:36:07;;;;;;;;;;;;;;;;;;5028832;28;19921;-76
2022/03/14 11:38:33;;;;;;;;;;;;;;;;;;5008052;28;20446;-75
2022/03/14 11:41:00;;;;;;;;;;;;;;;;;;5011794;28;19928;-75
2022/03/14 11:43:28;;;;;;;;;;;;;;;;;;5024268;28;19924;-76
2022/03/14 11:45:54;;;;;;;;;;;;;;;;;;5013305;28;19920;-76
2022/03/14 11:48:21;;;;;;;;;;;;;;;;;;5018728;28;19967;-76
2022/03/14 11:50:48;;;;;;;;;;;;;;;;;;5004873;28;20047;-76
2022/03/14 11:53:14;;;;;;;;;;;;;;;;;;5031018;28;19960;-76
2022/03/14 11:55:40;;;;;;;;;;;;;;;;;;5025931;28;20359;-75
2022/03/14 11:58:06;;;;;;;;;;;;;;;;;;5029192;28;19928;-76
2022/03/14 12:00:34;;;;;;;;;;;;;;;;;;5023007;28;20458;-75
2022/03/14 12:03:01;;;;;;;;;;;;;;;;;;5028110;28;19916;-75
2022/03/14 12:05:30;;;;;;;;;;;;;;;;;;5024007;28;19928;-75
2022/03/14 12:07:57;;;;;;;;;;;;;;;;;;5029648;28;20347;-75
2022/03/14 12:10:26;;;;;;;;;;;;;;;;;;5017524;28;19994;-70
2022/03/14 12:12:56;;;;;;;;;;;;;;;;;;5028496;28;20362;-69
2022/03/14 12:15:21;;;;;;;;;;;;;;;;;;5026536;28;20334;-69
2022/03/14 12:17:48;;;;;;;;;;;;;;;;;;5006237;28;20351;-69
2022/03/14 12:20:16;;;;;;;;;;;;;;;;;;5026412;28;19917;-70
2022/03/14 12:22:46;;;;;;;;;;;;;;;;;;5028064;28;19917;-70
2022/03/14 12:25:32;;;;;;;;;;;;;;;;;;5026436;28;20018;-68
2022/03/14 12:27:59;;;;;;;;;;;;;;;;;;5032510;28;20448;-69
2022/03/14 12:30:27;;;;;;;;;;;;;;;;;;5020771;28;20365;-68
2022/03/14 12:32:54;;;;;;;;;;;;;;;;;;5025153;28;19917;-69
2022/03/14 12:35:26;;;;;;;;;;;;;;;;;;5028317;28;19913;-69
2022/03/14 12:37:54;;;;;;;;;;;;;;;;;;5025751;28;19971;-68
2022/03/14 12:40:20;;;;;;;;;;;;;;;;;;5007296;28;19924;-68
2022/03/14 12:42:49;;;;;;;;;;;;;;;;;;5026677;28;20051;-69
2022/03/14 12:45:16;;;;;;;;;;;;;;;;;;5028717;28;19923;-68
2022/03/14 12:47:42;;;;;;;;;;;;;;;;;;5008841;28;20556;-69
2022/03/14 12:50:14;;;;;;;;;;;;;;;;;;5030954;28;19927;-71
2022/03/14 12:52:40;;;;;;;;;;;;;;;;;;5025721;28;19920;-69
2022/03/14 12:55:06;;;;;;;;;;;;;;;;;;5029527;28;19920;-69
2022/03/14 12:57:32;;;;;;;;;;;;;;;;;;5024616;28;20757;-70
2022/03/14 12:59:58;;;;;;;;;;;;;;;;;;5032599;28;19921;-70
2022/03/14 13:02:29;;;;;;;;;;;;;;;;;;5023973;28;19940;-71
2022/03/14 13:04:59;;;;;;;;;;;;;;;;;;5027308;28;19917;-69
2022/03/14 13:07:25;;;;;;;;;;;;;;;;;;5024677;28;19927;-70
2022/03/14 13:09:52;;;;;;;;;;;;;;;;;;5028337;28;19925;-70
2022/03/14 13:12:18;;;;;;;;;;;;;;;;;;5024513;28;19970;-70
2022/03/14 13:14:46;;;;;;;;;;;;;;;;;;5027248;28;19916;-71
2022/03/14 13:17:13;;;;;;;;;;;;;;;;;;5024217;28;19916;-70
2022/03/14 13:19:39;;;;;;;;;;;;;;;;;;5019130;28;20003;-70
2022/03/14 13:22:05;;;;;;;;;;;;;;;;;;5022439;28;20492;-70
2022/03/14 13:24:31;;;;;;;;;;;;;;;;;;5020487;28;19967;-70
2022/03/14 13:26:59;;;;;;;;;;;;;;;;;;5024116;28;19917;-70
2022/03/14 13:29:25;;;;;;;;;;;;;;;;;;5024317;28;19939;-68
2022/03/14 13:31:53;;;;;;;;;;;;;;;;;;5008778;28;19921;-69
2022/03/14 13:34:19;;;;;;;;;;;;;;;;;;5023843;28;19916;-68
2022/03/14 13:36:51;;;;;;;;;;;;;;;;;;5023308;28;20425;-68
2022/03/14 13:39:19;;;;;;;;;;;;;;;;;;5022347;28;19921;-68
2022/03/14 13:41:45;;;;;;;;;;;;;;;;;;5010237;28;19916;-68
2022/03/14 13:44:12;;;;;;;;;;;;;;;;;;5026553;28;19924;-69
2022/03/14 13:46:39;;;;;;;;;;;;;;;;;;5023974;28;19943;-68
2022/03/14 13:49:06;;;;;;;;;;;;;;;;;;5023129;28;19928;-68
2022/03/14 13:51:35;;;;;;;;;;;;;;;;;;5002887;28;19917;-70
2022/03/14 13:54:01;;;;;;;;;;;;;;;;;;5013460;28;20039;-70
2022/03/14 13:56:29;;;;;;;;;;;;;;;;;;5019427;28;20532;-69
2022/03/14 13:58:56;;;;;;;;;;;;;;;;;;5024128;28;19921;-70
2022/03/14 14:01:22;;;;;;;;;;;;;;;;;;5022809;28;20288;-71
2022/03/14 14:03:49;;;;;;;;;;;;;;;;;;5020054;28;20327;-69
2022/03/14 14:06:15;;;;;;;;;;;;;;;;;;5025984;28;19917;-70
2022/03/14 14:08:43;;;;;;;;;;;;;;;;;;5020898;28;20639;-70
2022/03/14 14:11:14;;;;;;;;;;;;;;;;;;5021769;28;19944;-70
2022/03/14 14:13:41;;;;;;;;;;;;;;;;;;4999753;28;20247;-71
2022/03/14 14:16:07;;;;;;;;;;;;;;;;;;5026938;28;19917;-70
2022/03/14 14:18:35;;;;;;;;;;;;;;;;;;5024475;28;20358;-70
2022/03/14 14:21:02;;;;;;;;;;;;;;;;;;5026359;28;19916;-70
2022/03/14 14:23:30;;;;;;;;;;;;;;;;;;5022511;28;19927;-69
2022/03/14 14:25:56;;;;;;;;;;;;;;;;;;5022145;28;19940;-70
2022/03/14 14:28:24;;;;;;;;;;;;;;;;;;5024091;28;19983;-71
2022/03/14 14:30:54;;;;;;;;;;;;;;;;;;5027201;28;19935;-71
2022/03/14 14:33:23;;;;;;;;;;;;;;;;;;5022204;28;20295;-71
2022/03/14 14:35:49;;;;;;;;;;;;;;;;;;5000857;28;20397;-71
2022/03/14 14:38:16;;;;;;;;;;;;;;;;;;5005010;28;20379;-71
2022/03/14 14:40:43;;;;;;;;;;;;;;;;;;5004819;28;20001;-70
2022/03/14 14:43:13;;;;;;;;;;;;;;;;;;5002784;28;19932;-71
2022/03/14 14:45:39;;;;;;;;;;;;;;;;;;5000921;28;19917;-71
2022/03/14 14:48:08;;;;;;;;;;;;;;;;;;5003227;28;20466;-72
2022/03/14 14:50:38;;;;;;;;;;;;;;;;;;4984563;28;19970;-71
2022/03/14 14:53:06;;;;;;;;;;;;;;;;;;5002796;28;19916;-70
2022/03/14 14:55:34;;;;;;;;;;;;;;;;;;5000620;28;19917;-70
2022/03/14 14:58:00;;;;;;;;;;;;;;;;;;4986794;28;20481;-71
2022/03/14 15:00:27;;;;;;;;;;;;;;;;;;4987942;28;19936;-70
2022/03/14 15:02:53;;;;;;;;;;;;;;;;;;4993287;28;19983;-71
2022/03/14 15:05:21;;;;;;;;;;;;;;;;;;5000419;28;19921;-71
2022/03/14 15:07:47;;;;;;;;;;;;;;;;;;5003917;28;19921;-72
2022/03/14 15:10:14;;;;;;;;;;;;;;;;;;5001710;28;19929;-70
2022/03/14 15:12:40;;;;;;;;;;;;;;;;;;5000893;28;20498;-72
2022/03/14 15:15:06;;;;;;;;;;;;;;;;;;5003098;28;19924;-71
2022/03/14 15:17:34;;;;;;;;;;;;;;;;;;4999231;28;20406;-70
2022/03/14 15:20:01;;;;;;;;;;;;;;;;;;5003752;28;19917;-71
2022/03/14 15:22:28;;;;;;;;;;;;;;;;;;4987132;28;20051;-71
2022/03/14 15:24:54;;;;;;;;;;;;;;;;;;4990869;28;20460;-70
2022/03/14 15:27:21;;;;;;;;;;;;;;;;;;5022470;28;20926;-70
2022/03/14 15:29:49;;;;;;;;;;;;;;;;;;5026224;28;19925;-70
2022/03/14 15:32:20;;;;;;;;;;;;;;;;;;5023377;28;19974;-69
2022/03/14 15:34:52;;;;;;;;;;;;;;;;;;5027875;28;19920;-70
2022/03/14 15:37:19;;;;;;;;;;;;;;;;;;5013314;28;20418;-70
2022/03/14 15:39:47;;;;;;;;;;;;;;;;;;5024392;28;20020;-70
2022/03/14 15:42:14;;;;;;;;;;;;;;;;;;5026678;28;19956;-70
2022/03/14 15:44:44;;;;;;;;;;;;;;;;;;5027401;28;20181;-70
2022/03/14 15:47:10;;;;;;;;;;;;;;;;;;5023816;28;19925;-70
2022/03/14 15:49:37;;;;;;;;;;;;;;;;;;5021649;28;19921;-70
2022/03/14 15:52:04;;;;;;;;;;;;;;;;;;5006662;28;19923;-70
2022/03/14 15:54:34;;;;;;;;;;;;;;;;;;5018510;28;20659;-71
2022/03/14 15:57:01;;;;;;;;;;;;;;;;;;5026291;28;20388;-70
2022/03/14 15:59:32;;;;;;;;;;;;;;;;;;5021132;28;20361;-70
2022/03/14 16:02:02;;;;;;;;;;;;;;;;;;4991890;28;19916;-71
2022/03/14 16:04:28;;;;;;;;;;;;;;;;;;5022302;28;20392;-70
2022/03/14 16:06:54;;;;;;;;;;;;;;;;;;5027914;28;20332;-71
2022/03/14 16:09:21;;;;;;;;;;;;;;;;;;5020559;28;20535;-69
2022/03/14 16:11:48;;;;;;;;;;;;;;;;;;5029524;28;20566;-69
2022/03/14 16:14:15;;;;;;;;;;;;;;;;;;5025623;28;20040;-70
2022/03/14 16:16:41;;;;;;;;;;;;;;;;;;5022490;28;19940;-70
2022/03/14 16:19:09;;;;;;;;;;;;;;;;;;5029452;28;19960;-69
2022/03/14 16:21:36;;;;;;;;;;;;;;;;;;5025441;28;19919;-71
2022/03/14 16:24:05;;;;;;;;;;;;;;;;;;5006987;28;19946;-70
2022/03/14 16:26:33;;;;;;;;;;;;;;;;;;5024932;28;20454;-70
2022/03/14 16:29:01;;;;;;;;;;;;;;;;;;5023909;28;20417;-70
2022/03/14 16:31:31;;;;;;;;;;;;;;;;;;5025020;28;19925;-69
2022/03/14 16:33:58;;;;;;;;;;;;;;;;;;5027786;28;19929;-70
2022/03/14 16:36:24;;;;;;;;;;;;;;;;;;5024132;28;19940;-71
2022/03/14 16:38:51;;;;;;;;;;;;;;;;;;5034544;28;20074;-70
2022/03/14 16:41:23;;;;;;;;;;;;;;;;;;5011644;28;20392;-71
2022/03/14 16:43:49;;;;;;;;;;;;;;;;;;5032818;28;19913;-70
2022/03/14 16:46:16;;;;;;;;;;;;;;;;;;5010293;28;20047;-70
2022/03/14 16:48:43;;;;;;;;;;;;;;;;;;5029070;28;20235;-70